createdAt,value
2023-06-23T00:00:17.003Z,17.20
2023-06-23T00:02:44.862Z,14.43
2023-06-23T00:05:13.683Z,17.30
2023-06-23T00:07:43.684Z,15.53
2023-06-23T00:10:12.325Z,16.90
2023-06-23T00:12:42.470Z,16.43
2023-06-23T00:15:10.829Z,17.23
2023-06-23T00:17:38.603Z,17.40
2023-06-23T00:20:11.107Z,20.50
2023-06-23T00:22:39.346Z,19.10
2023-06-23T00:25:10.717Z,21.57
2023-06-23T00:27:38.976Z,19.33
2023-06-23T00:30:07.877Z,16.03
2023-06-23T00:32:35.985Z,16.97
2023-06-23T00:35:04.531Z,17.27
2023-06-23T00:37:32.594Z,16.40
2023-06-23T00:40:00.988Z,18.97
2023-06-23T00:42:29.961Z,22.33
2023-06-23T00:44:58.911Z,16.40
2023-06-23T00:47:31.335Z,16.37
2023-06-23T00:49:59.273Z,17.60
2023-06-23T00:52:28.320Z,21.47
2023-06-23T00:54:56.331Z,18.87
2023-06-23T00:57:24.042Z,23.57
2023-06-23T00:59:53.051Z,27.53
2023-06-23T01:02:21.317Z,20.13
2023-06-23T01:04:50.100Z,22.83
2023-06-23T01:07:42.936Z,17.80
2023-06-23T01:10:16.613Z,22.90
2023-06-23T01:12:50.420Z,19.40
2023-06-23T01:15:25.678Z,21.27
2023-06-23T01:17:59.510Z,21.43
2023-06-23T01:20:30.446Z,19.80
2023-06-23T01:23:25.114Z,20.10
2023-06-23T01:25:57.728Z,19.80
2023-06-23T01:28:45.625Z,19.03
2023-06-23T01:31:18.222Z,26.17
2023-06-23T01:33:50.791Z,19.83
2023-06-23T01:36:26.863Z,24.23
2023-06-23T01:39:04.288Z,23.60
2023-06-23T01:41:35.974Z,23.87
2023-06-23T01:44:11.998Z,25.53
2023-06-23T01:46:40.453Z,20.57
2023-06-23T01:49:14.783Z,21.90
2023-06-23T01:51:46.639Z,21.00
2023-06-23T01:54:18.045Z,23.13
2023-06-23T01:56:47.670Z,18.57
2023-06-23T01:59:18.924Z,22.70
2023-06-23T02:01:48.582Z,21.60
2023-06-23T02:04:18.626Z,21.90
2023-06-23T02:06:48.618Z,21.57
2023-06-23T02:09:21.175Z,19.23
2023-06-23T02:11:49.857Z,19.10
2023-06-23T02:14:21.063Z,19.17
2023-06-23T02:16:51.538Z,20.57
2023-06-23T02:19:21.281Z,18.40
2023-06-23T02:21:49.555Z,20.13
2023-06-23T02:24:19.925Z,16.73
2023-06-23T02:26:49.220Z,18.27
2023-06-23T02:29:19.728Z,17.23
2023-06-23T02:31:47.450Z,24.57
2023-06-23T02:34:17.303Z,21.47
2023-06-23T02:36:49.549Z,17.63
2023-06-23T02:39:21.255Z,15.33
2023-06-23T02:41:55.881Z,16.60
2023-06-23T02:44:32.446Z,17.33
2023-06-23T02:47:02.096Z,17.37
2023-06-23T02:49:32.622Z,15.47
2023-06-23T02:52:03.001Z,15.30
2023-06-23T02:54:36.463Z,18.50
2023-06-23T02:57:08.368Z,17.57
2023-06-23T02:59:40.884Z,16.23
2023-06-23T03:02:10.528Z,20.33
2023-06-23T03:04:40.027Z,17.87
2023-06-23T03:07:08.044Z,21.23
2023-06-23T03:09:36.228Z,19.43
2023-06-23T03:12:04.175Z,21.17
2023-06-23T03:14:36.220Z,20.37
2023-06-23T03:17:12.974Z,23.43
2023-06-23T03:19:45.737Z,23.77
2023-06-23T03:22:18.915Z,18.73
2023-06-23T03:24:52.418Z,18.33
2023-06-23T03:27:23.607Z,19.63
2023-06-23T03:29:55.765Z,20.97
2023-06-23T03:32:30.710Z,20.07
2023-06-23T03:35:01.066Z,26.97
2023-06-23T03:37:29.659Z,20.30
2023-06-23T03:40:01.442Z,19.90
2023-06-23T03:42:29.996Z,15.97
2023-06-23T03:45:01.325Z,18.90
2023-06-23T03:47:31.736Z,19.40
2023-06-23T03:50:05.170Z,22.17
2023-06-23T03:52:35.091Z,23.10
2023-06-23T03:55:03.993Z,18.40
2023-06-23T03:57:33.160Z,25.20
2023-06-23T04:00:04.024Z,21.17
2023-06-23T04:02:44.497Z,23.57
2023-06-23T04:05:14.285Z,19.40
2023-06-23T04:07:44.770Z,26.03
2023-06-23T04:10:14.806Z,25.40
2023-06-23T04:12:44.272Z,27.33
2023-06-23T04:15:13.145Z,21.50
2023-06-23T04:17:44.584Z,23.77
2023-06-23T04:20:15.219Z,27.47
2023-06-23T04:22:46.468Z,21.77
2023-06-23T04:25:18.867Z,26.63
2023-06-23T04:27:49.370Z,29.70
2023-06-23T04:30:18.877Z,26.40
2023-06-23T04:32:48.015Z,29.87
2023-06-23T04:35:16.044Z,25.13
2023-06-23T04:37:47.134Z,28.03
2023-06-23T04:40:22.483Z,26.43
2023-06-23T04:42:55.455Z,31.17
2023-06-23T04:45:27.824Z,32.80
2023-06-23T04:48:02.145Z,24.13
2023-06-23T04:50:32.280Z,26.77
2023-06-23T04:53:06.248Z,29.00
2023-06-23T04:55:36.348Z,28.33
2023-06-23T04:58:06.674Z,29.33
2023-06-23T05:00:35.207Z,29.93
2023-06-23T05:03:06.362Z,34.13
2023-06-23T05:05:35.182Z,28.83
2023-06-23T05:08:06.082Z,29.10
2023-06-23T05:10:35.499Z,32.47
2023-06-23T05:13:06.006Z,29.73
2023-06-23T05:15:34.709Z,31.57
2023-06-23T05:18:05.764Z,30.60
2023-06-23T05:20:36.781Z,30.93
2023-06-23T05:23:06.752Z,31.03
2023-06-23T05:25:35.456Z,26.67
2023-06-23T05:28:05.171Z,31.87
2023-06-23T05:30:35.830Z,25.07
2023-06-23T05:33:09.442Z,29.53
2023-06-23T05:35:39.439Z,26.27
2023-06-23T05:38:09.148Z,26.53
2023-06-23T05:40:37.043Z,27.73
2023-06-23T05:43:07.352Z,29.63
2023-06-23T05:45:35.870Z,26.60
2023-06-23T05:48:13.749Z,24.00
2023-06-23T05:50:43.869Z,24.20
2023-06-23T05:53:15.450Z,22.47
2023-06-23T05:55:45.927Z,27.00
2023-06-23T05:58:15.666Z,24.53
2023-06-23T06:00:47.732Z,21.70
2023-06-23T06:03:20.333Z,20.80
2023-06-23T06:05:53.358Z,19.30
2023-06-23T06:08:23.265Z,22.87
2023-06-23T06:10:52.406Z,22.73
2023-06-23T06:13:21.514Z,22.00
2023-06-23T06:15:53.055Z,20.33
2023-06-23T06:18:25.431Z,20.97
2023-06-23T06:20:54.288Z,29.00
2023-06-23T06:23:26.265Z,25.60
2023-06-23T06:25:55.981Z,21.53
2023-06-23T06:28:26.069Z,19.43
2023-06-23T06:30:55.721Z,20.03
2023-06-23T06:33:26.647Z,20.20
2023-06-23T06:35:57.030Z,18.60
2023-06-23T06:38:26.303Z,19.50
2023-06-23T06:40:55.747Z,18.23
2023-06-23T06:43:23.468Z,19.20
2023-06-23T06:45:52.409Z,18.87
2023-06-23T06:48:22.283Z,20.33
2023-06-23T06:50:53.160Z,19.47
2023-06-23T06:53:22.577Z,19.50
2023-06-23T06:55:50.612Z,18.83
2023-06-23T06:58:18.802Z,19.00
2023-06-23T07:00:46.897Z,21.50
2023-06-23T07:03:15.079Z,18.40
2023-06-23T07:05:43.321Z,17.97
2023-06-23T07:08:12.514Z,21.53
2023-06-23T07:10:40.352Z,17.63
2023-06-23T07:13:08.132Z,17.63
2023-06-23T07:15:35.887Z,20.60
2023-06-23T07:18:04.154Z,28.97
2023-06-23T07:20:32.122Z,15.87
2023-06-23T07:22:59.948Z,18.03
2023-06-23T07:25:28.983Z,18.10
2023-06-23T07:27:56.708Z,20.10
2023-06-23T07:30:24.578Z,18.90
2023-06-23T07:32:53.425Z,16.27
2023-06-23T07:35:21.212Z,13.13
2023-06-23T07:37:48.871Z,16.30
2023-06-23T07:40:16.695Z,12.83
2023-06-23T07:42:45.737Z,13.60
2023-06-23T07:45:13.441Z,11.53
2023-06-23T07:47:41.161Z,12.90
2023-06-23T07:50:09.409Z,12.50
2023-06-23T07:52:37.116Z,11.30
2023-06-23T07:55:05.378Z,11.70
2023-06-23T07:57:33.034Z,9.63
2023-06-23T08:00:02.009Z,9.80
2023-06-23T08:02:29.748Z,10.03
2023-06-23T08:04:57.450Z,8.27
2023-06-23T08:07:25.139Z,10.60
2023-06-23T08:09:52.835Z,8.57
2023-06-23T08:12:20.403Z,9.73
2023-06-23T08:14:48.033Z,7.93
2023-06-23T08:17:17.006Z,9.17
2023-06-23T08:19:44.933Z,7.83
2023-06-23T08:22:12.609Z,10.63
2023-06-23T08:24:40.286Z,5.73
2023-06-23T08:27:08.666Z,7.27
2023-06-23T08:29:38.367Z,6.63
2023-06-23T08:32:07.477Z,6.10
2023-06-23T08:34:37.784Z,6.23
2023-06-23T08:37:05.872Z,5.50
2023-06-23T08:39:33.624Z,5.37
2023-06-23T08:42:01.397Z,6.07
2023-06-23T08:44:32.050Z,6.40
2023-06-23T08:47:07.344Z,8.20
2023-06-23T08:49:40.752Z,6.23
2023-06-23T08:52:09.506Z,6.53
2023-06-23T08:54:37.424Z,4.90
2023-06-23T08:57:07.174Z,7.20
2023-06-23T08:59:34.815Z,4.97
2023-06-23T09:02:02.660Z,5.90
2023-06-23T09:04:30.389Z,7.50
2023-06-23T09:06:59.981Z,4.70
2023-06-23T09:09:28.090Z,5.77
2023-06-23T09:11:56.753Z,7.17
2023-06-23T09:14:30.128Z,7.17
2023-06-23T09:16:58.680Z,6.73
2023-06-23T09:19:27.121Z,5.80
2023-06-23T09:21:56.685Z,6.67
2023-06-23T09:24:25.876Z,6.63
2023-06-23T09:26:55.263Z,5.50
2023-06-23T09:29:24.852Z,8.60
2023-06-23T09:31:54.314Z,4.90
2023-06-23T09:34:23.781Z,4.53
2023-06-23T09:36:53.605Z,4.50
2023-06-23T09:39:22.019Z,4.57
2023-06-23T09:41:58.811Z,5.10
2023-06-23T09:44:34.535Z,3.97
2023-06-23T09:47:02.621Z,4.07
2023-06-23T09:49:30.357Z,9.00
2023-06-23T09:51:58.007Z,4.43
2023-06-23T09:54:37.493Z,7.00
2023-06-23T09:57:09.570Z,6.37
2023-06-23T09:59:39.883Z,4.87
2023-06-23T10:02:08.122Z,6.73
2023-06-23T10:04:36.842Z,6.53
2023-06-23T10:07:20.071Z,4.77
2023-06-23T10:09:53.171Z,6.07
2023-06-23T10:12:28.351Z,6.00
2023-06-23T10:14:58.165Z,4.87
2023-06-23T10:17:26.902Z,6.03
2023-06-23T10:19:57.122Z,7.50
2023-06-23T10:22:24.850Z,6.73
2023-06-23T10:24:54.483Z,7.73
2023-06-23T10:27:27.350Z,6.37
2023-06-23T10:29:57.463Z,5.37
2023-06-23T10:32:27.672Z,6.07
2023-06-23T10:34:58.958Z,5.70
2023-06-23T10:37:43.711Z,9.90
2023-06-23T10:40:15.313Z,8.50
2023-06-23T10:42:47.685Z,5.90
2023-06-23T10:45:15.598Z,4.93
2023-06-23T10:47:44.513Z,4.83
2023-06-23T10:50:14.033Z,5.13
2023-06-23T10:52:42.027Z,6.63
2023-06-23T10:55:57.988Z,4.60
2023-06-23T10:58:31.861Z,5.03
2023-06-23T11:01:02.453Z,4.83
2023-06-23T11:03:31.502Z,4.93
2023-06-23T11:06:01.279Z,6.57
2023-06-23T11:08:32.417Z,4.90
2023-06-23T11:11:04.546Z,6.63
2023-06-23T11:13:46.697Z,9.63
2023-06-23T11:16:19.053Z,6.00
2023-06-23T11:18:54.059Z,6.37
2023-06-23T11:21:32.254Z,5.30
2023-06-23T11:24:14.380Z,5.10
2023-06-23T11:26:53.424Z,4.33
2023-06-23T11:29:23.780Z,5.03
2023-06-23T11:32:09.127Z,4.50
2023-06-23T11:34:57.635Z,4.90
2023-06-23T11:37:28.693Z,5.20
2023-06-23T11:39:57.248Z,5.90
2023-06-23T11:42:25.761Z,4.77
2023-06-23T11:44:58.300Z,5.50
2023-06-23T11:47:27.585Z,4.93
2023-06-23T11:49:56.956Z,4.20
2023-06-23T11:52:24.948Z,5.00
2023-06-23T11:54:53.651Z,5.10
2023-06-23T11:57:21.568Z,4.63
2023-06-23T11:59:49.895Z,3.93
2023-06-23T12:02:18.971Z,4.60
2023-06-23T12:04:46.766Z,4.50
2023-06-23T12:07:14.706Z,5.07
2023-06-23T12:09:42.440Z,7.37
2023-06-23T12:12:15.653Z,3.57
2023-06-23T12:14:44.928Z,5.17
2023-06-23T12:17:14.743Z,4.40
2023-06-23T12:19:44.396Z,4.50
2023-06-23T12:22:18.048Z,4.83
2023-06-23T12:24:46.849Z,4.10
2023-06-23T12:27:14.610Z,4.30
2023-06-23T12:29:42.519Z,4.33
2023-06-23T12:32:11.647Z,5.00
2023-06-23T12:34:46.794Z,4.20
2023-06-23T12:37:18.239Z,4.57
2023-06-23T12:39:53.648Z,4.43
2023-06-23T12:42:22.505Z,4.10
2023-06-23T12:44:51.300Z,4.70
2023-06-23T12:47:20.044Z,4.83
2023-06-23T12:49:50.359Z,5.93
2023-06-23T12:52:18.116Z,4.10
2023-06-23T12:54:45.826Z,3.50
2023-06-23T12:57:14.343Z,3.60
2023-06-23T12:59:42.854Z,4.07
2023-06-23T13:02:13.558Z,4.30
2023-06-23T13:04:41.405Z,3.90
2023-06-23T13:07:10.515Z,4.00
2023-06-23T13:09:38.231Z,3.60
2023-06-23T13:12:06.600Z,3.60
2023-06-23T13:14:34.332Z,4.10
2023-06-23T13:17:01.990Z,4.50
2023-06-23T13:19:29.686Z,4.83
2023-06-23T13:21:57.371Z,4.20
2023-06-23T13:24:26.428Z,7.20
2023-06-23T13:26:54.136Z,5.80
2023-06-23T13:29:21.937Z,4.07
2023-06-23T13:31:49.788Z,4.40
2023-06-23T13:34:17.607Z,8.03
2023-06-23T13:36:45.800Z,5.10
2023-06-23T13:39:13.446Z,3.87
2023-06-23T13:41:42.679Z,4.40
2023-06-23T13:44:10.460Z,4.60
2023-06-23T13:46:38.184Z,5.47
2023-06-23T13:49:06.164Z,4.20
2023-06-23T13:51:33.858Z,4.60
2023-06-23T13:54:01.564Z,4.50
2023-06-23T13:56:29.240Z,4.17
2023-06-23T13:58:58.336Z,5.10
2023-06-23T14:01:26.065Z,7.00
2023-06-23T14:03:53.952Z,5.17
2023-06-23T14:06:22.205Z,4.37
2023-06-23T14:08:52.217Z,5.40
2023-06-23T14:11:20.111Z,4.87
2023-06-23T14:13:47.844Z,4.53
2023-06-23T14:16:17.818Z,7.53
2023-06-23T14:18:45.803Z,5.10
2023-06-23T14:21:13.948Z,8.93
2023-06-23T14:23:41.679Z,4.37
2023-06-23T14:26:09.461Z,4.10
2023-06-23T14:28:37.177Z,4.97
2023-06-23T14:31:05.083Z,4.37
2023-06-23T14:33:34.157Z,4.13
2023-06-23T14:36:02.082Z,5.03
2023-06-23T14:38:29.962Z,5.20
2023-06-23T14:40:57.892Z,4.20
2023-06-23T14:43:25.906Z,4.37
2023-06-23T14:45:54.885Z,6.37
2023-06-23T14:48:23.130Z,4.97
2023-06-23T14:50:52.439Z,4.93
2023-06-23T14:53:20.092Z,5.03
2023-06-23T14:55:47.962Z,4.50
2023-06-23T14:58:15.852Z,4.60
2023-06-23T15:00:43.790Z,5.10
2023-06-23T15:03:12.755Z,3.70
2023-06-23T15:05:40.806Z,4.20
2023-06-23T15:08:09.880Z,3.67
2023-06-23T15:10:38.019Z,4.43
2023-06-23T15:13:05.699Z,4.70
2023-06-23T15:15:33.680Z,4.00
2023-06-23T15:18:01.762Z,3.47
2023-06-23T15:20:29.526Z,5.43
2023-06-23T15:22:57.300Z,3.73
2023-06-23T15:25:26.378Z,4.80
2023-06-23T15:27:54.015Z,4.50
2023-06-23T15:30:21.879Z,5.17
2023-06-23T15:32:49.607Z,3.90
2023-06-23T15:35:17.292Z,4.50
2023-06-23T15:37:45.183Z,3.80
2023-06-23T15:40:15.324Z,4.63
2023-06-23T15:42:44.496Z,4.13
2023-06-23T15:45:13.233Z,3.60
2023-06-23T15:47:41.031Z,4.07
2023-06-23T15:50:09.158Z,4.37
2023-06-23T15:52:37.296Z,5.40
2023-06-23T15:55:05.400Z,5.47
2023-06-23T15:57:33.052Z,3.60
2023-06-23T16:00:02.083Z,7.23
2023-06-23T16:02:32.893Z,4.40
2023-06-23T16:05:00.770Z,4.03
2023-06-23T16:07:28.753Z,8.17
2023-06-23T16:09:57.406Z,4.23
2023-06-23T16:12:25.264Z,5.93
2023-06-23T16:14:52.942Z,4.83
2023-06-23T16:17:22.107Z,3.40
2023-06-23T16:19:49.777Z,4.63
2023-06-23T16:22:17.535Z,4.60
2023-06-23T16:24:45.278Z,4.33
2023-06-23T16:27:12.949Z,4.37
2023-06-23T16:29:41.039Z,5.27
2023-06-23T16:32:09.683Z,4.30
2023-06-23T16:34:38.814Z,3.33
2023-06-23T16:37:07.450Z,3.63
2023-06-23T16:39:35.142Z,7.03
2023-06-23T16:42:02.903Z,3.87
2023-06-23T16:44:30.693Z,4.57
2023-06-23T16:46:58.551Z,3.70
2023-06-23T16:49:28.182Z,12.20
2023-06-23T16:51:57.317Z,3.60
2023-06-23T16:54:25.190Z,3.50
2023-06-23T16:56:52.872Z,3.77
2023-06-23T16:59:20.562Z,3.93
2023-06-23T17:01:48.305Z,3.00
2023-06-23T17:04:16.087Z,4.40
2023-06-23T17:06:44.301Z,3.67
2023-06-23T17:09:13.532Z,4.70
2023-06-23T17:11:41.285Z,4.60
2023-06-23T17:14:09.790Z,4.13
2023-06-23T17:16:37.452Z,4.90
2023-06-23T17:19:05.138Z,4.70
2023-06-23T17:21:33.120Z,4.33
2023-06-23T17:24:00.880Z,4.03
2023-06-23T17:26:32.458Z,5.00
2023-06-23T17:29:03.531Z,5.60
2023-06-23T17:31:31.295Z,4.30
2023-06-23T17:34:00.145Z,4.27
2023-06-23T17:36:27.997Z,4.77
2023-06-23T17:38:55.636Z,3.47
2023-06-23T17:41:23.382Z,4.03
2023-06-23T17:43:52.472Z,4.10
2023-06-23T17:46:20.425Z,4.50
2023-06-23T17:48:48.236Z,4.67
2023-06-23T17:51:16.064Z,4.53
2023-06-23T17:53:43.986Z,4.37
2023-06-23T17:56:11.658Z,4.50
2023-06-23T17:58:39.320Z,4.43
2023-06-23T18:01:08.457Z,4.53
2023-06-23T18:03:36.903Z,5.10
2023-06-23T18:06:04.835Z,4.67
2023-06-23T18:08:32.489Z,4.40
2023-06-23T18:11:00.162Z,5.30
2023-06-23T18:13:27.904Z,5.20
2023-06-23T18:15:55.999Z,4.60
2023-06-23T18:18:25.157Z,4.90
2023-06-23T18:20:52.850Z,6.73
2023-06-23T18:23:20.541Z,3.97
2023-06-23T18:25:48.316Z,8.47
2023-06-23T18:28:15.998Z,6.23
2023-06-23T18:30:43.724Z,5.07
2023-06-23T18:33:11.503Z,5.50
2023-06-23T18:35:40.530Z,4.87
2023-06-23T18:38:08.183Z,5.80
2023-06-23T18:40:36.575Z,6.63
2023-06-23T18:43:04.531Z,4.70
2023-06-23T18:45:32.512Z,5.73
2023-06-23T18:48:00.372Z,5.20
2023-06-23T18:50:28.498Z,4.20
2023-06-23T18:52:57.537Z,4.73
2023-06-23T18:55:25.248Z,4.80
2023-06-23T18:57:52.947Z,5.23
2023-06-23T19:00:20.977Z,6.77
2023-06-23T19:02:48.758Z,4.40
2023-06-23T19:05:16.476Z,5.17
2023-06-23T19:07:44.155Z,4.83
2023-06-23T19:10:13.161Z,4.80
2023-06-23T19:12:41.039Z,4.90
2023-06-23T19:15:10.038Z,5.97
2023-06-23T19:17:37.740Z,5.10
2023-06-23T19:20:06.465Z,4.77
2023-06-23T19:22:34.351Z,5.63
2023-06-23T19:25:02.027Z,5.57
2023-06-23T19:27:31.004Z,8.20
2023-06-23T19:29:58.651Z,6.40
2023-06-23T19:32:26.454Z,6.10
2023-06-23T19:34:54.119Z,6.67
2023-06-23T19:37:21.811Z,6.93
2023-06-23T19:39:59.415Z,5.47
2023-06-23T19:42:28.049Z,6.70
2023-06-23T19:44:57.043Z,4.90
2023-06-23T19:47:24.978Z,6.00
2023-06-23T19:49:52.896Z,5.77
2023-06-23T19:52:20.593Z,8.13
2023-06-23T19:54:48.431Z,5.93
2023-06-23T19:57:16.203Z,6.80
2023-06-23T19:59:43.896Z,6.10
2023-06-23T20:02:12.952Z,7.03
2023-06-23T20:04:40.717Z,6.13
2023-06-23T20:07:08.432Z,6.53
2023-06-23T20:09:36.844Z,6.20
2023-06-23T20:12:04.975Z,6.33
2023-06-23T20:14:32.636Z,9.07
2023-06-23T20:17:00.427Z,6.90
2023-06-23T20:19:29.461Z,6.63
2023-06-23T20:21:57.230Z,7.00
2023-06-23T20:24:25.026Z,5.97
2023-06-23T20:26:52.756Z,8.30
2023-06-23T20:29:20.746Z,9.67
2023-06-23T20:31:48.824Z,6.20
2023-06-23T20:34:16.471Z,5.63
2023-06-23T20:36:46.676Z,6.03
2023-06-23T20:39:14.534Z,6.97
2023-06-23T20:41:42.654Z,7.60
2023-06-23T20:44:10.503Z,7.70
2023-06-23T20:46:38.452Z,7.90
2023-06-23T20:49:06.794Z,7.40
2023-06-23T20:51:34.561Z,7.90
2023-06-23T20:54:03.778Z,8.70
2023-06-23T20:56:31.507Z,9.33
2023-06-23T20:58:59.271Z,7.13
2023-06-23T21:01:26.989Z,8.70
2023-06-23T21:03:54.772Z,6.33
2023-06-23T21:06:22.558Z,10.90
2023-06-23T21:08:50.240Z,8.13
2023-06-23T21:11:19.403Z,10.63
2023-06-23T21:13:47.140Z,9.90
2023-06-23T21:16:14.925Z,7.67
2023-06-23T21:18:42.748Z,7.70
2023-06-23T21:21:12.022Z,8.53
2023-06-23T21:23:39.709Z,8.13
2023-06-23T21:26:07.423Z,8.03
2023-06-23T21:28:39.039Z,10.60
2023-06-23T21:31:06.901Z,7.70
2023-06-23T21:33:35.024Z,8.67
2023-06-23T21:36:02.856Z,11.90
2023-06-23T21:38:30.539Z,7.97
2023-06-23T21:40:58.202Z,8.97
2023-06-23T21:43:25.947Z,8.40
2023-06-23T21:45:54.961Z,8.87
2023-06-23T21:48:23.736Z,8.27
2023-06-23T21:50:51.460Z,9.20
2023-06-23T21:53:19.136Z,8.70
2023-06-23T21:55:46.903Z,9.47
2023-06-23T21:58:15.498Z,8.37
2023-06-23T22:00:44.715Z,8.37
2023-06-23T22:03:13.822Z,9.33
2023-06-23T22:05:41.528Z,9.17
2023-06-23T22:08:09.509Z,9.20
2023-06-23T22:10:37.409Z,9.57
2023-06-23T22:13:05.135Z,9.80
2023-06-23T22:15:32.836Z,8.90
2023-06-23T22:18:00.720Z,9.93
2023-06-23T22:20:29.763Z,9.47
2023-06-23T22:22:57.427Z,10.10
2023-06-23T22:25:25.084Z,14.70
2023-06-23T22:27:52.804Z,11.10
2023-06-23T22:30:20.463Z,9.93
2023-06-23T22:32:48.212Z,9.63
2023-06-23T22:35:16.019Z,10.93
2023-06-23T22:37:45.038Z,13.57
2023-06-23T22:40:14.735Z,12.13
2023-06-23T22:42:42.643Z,13.23
2023-06-23T22:45:10.992Z,13.37
2023-06-23T22:47:38.696Z,8.53
2023-06-23T22:50:07.841Z,10.07
2023-06-23T22:52:40.075Z,8.27
2023-06-23T22:55:10.091Z,11.20
2023-06-23T22:57:37.821Z,10.37
2023-06-23T23:00:10.344Z,10.70
2023-06-23T23:02:38.202Z,11.83
2023-06-23T23:05:07.068Z,12.13
2023-06-23T23:07:35.410Z,8.10
2023-06-23T23:10:03.247Z,9.00
2023-06-23T23:12:32.226Z,9.57
2023-06-23T23:14:59.925Z,7.90
2023-06-23T23:17:27.820Z,9.40
2023-06-23T23:19:57.042Z,12.73
2023-06-23T23:22:25.318Z,9.57
2023-06-23T23:24:53.798Z,9.80
2023-06-23T23:27:22.215Z,11.10
2023-06-23T23:29:54.732Z,10.43
2023-06-23T23:32:24.491Z,11.40
2023-06-23T23:34:52.450Z,9.50
2023-06-23T23:37:20.096Z,10.10
2023-06-23T23:39:47.875Z,11.40
2023-06-23T23:42:15.585Z,10.07
2023-06-23T23:44:43.212Z,10.50
2023-06-23T23:47:12.243Z,9.50
2023-06-23T23:49:40.022Z,9.80
2023-06-23T23:52:08.551Z,10.33
2023-06-23T23:54:36.204Z,10.50
2023-06-23T23:57:04.789Z,10.10
2023-06-23T23:59:32.549Z,10.47
